Time;durP1;ratioP1;P1;durP2;ratioP2;P2;SDS_P1;SDS_P2;PMS_P1;PMS_P2;Temp;Humidity;BMP_temperature;BMP_pressure;BME280_temperature;BME280_humidity;BME280_pressure;Samples;Min_cycle;Max_cycle;Signal;HPM_P1;HPM_P2
2022/02/08 00:01:14;;;;;;;;;91.50;76.50;;;;;;;;5077837;28;8800;-85
2022/02/08 00:03:40;;;;;;;;;101.20;94.40;;;;;;;;5077970;28;8808;-85
2022/02/08 00:06:48;;;;;;;;;89.50;73.75;;;;;;;;5077677;28;8855;-85
2022/02/08 00:08:54;;;;;;;;;101.00;93.40;;;;;;;;5077051;28;9706;-84
2022/02/08 00:11:19;;;;;;;;;99.00;91.25;;;;;;;;5077665;28;8808;-85
2022/02/08 00:13:44;;;;;;;;;93.75;80.00;;;;;;;;5077699;28;8832;-84
2022/02/08 00:16:10;;;;;;;;;88.67;74.67;;;;;;;;5073989;28;8830;-84
2022/02/08 00:18:35;;;;;;;;;96.00;84.67;;;;;;;;5076792;28;8856;-84
2022/02/08 00:21:01;;;;;;;;;89.00;74.50;;;;;;;;5077855;28;8883;-84
2022/02/08 00:23:26;;;;;;;;;94.25;80.00;;;;;;;;5075785;28;8973;-83
2022/02/08 00:25:51;;;;;;;;;95.67;83.33;;;;;;;;5077587;28;8796;-78
2022/02/08 00:28:17;;;;;;;;;95.50;82.75;;;;;;;;5077279;28;8816;-78
2022/02/08 00:30:42;;;;;;;;;93.40;78.40;;;;;;;;5077518;28;8820;-78
2022/02/08 00:33:08;;;;;;;;;90.25;76.50;;;;;;;;5066902;28;8802;-78
2022/02/08 00:35:33;;;;;;;;;91.33;76.00;;;;;;;;5074175;28;8919;-77
2022/02/08 00:37:58;;;;;;;;;91.33;78.33;;;;;;;;5077574;28;8844;-77
2022/02/08 00:40:26;;;;;;;;;98.25;89.00;;;;;;;;5077183;28;8929;-78
2022/02/08 00:42:51;;;;;;;;;92.80;80.20;;;;;;;;5077213;28;8808;-78
2022/02/08 00:48:04;;;;;;;;;87.20;71.80;;;;;;;;5077356;28;8793;-78
2022/02/08 00:50:29;;;;;;;;;89.00;74.40;;;;;;;;5063228;28;9651;-78
2022/02/08 00:52:55;;;;;;;;;88.67;71.33;;;;;;;;5075955;28;8866;-78
2022/02/08 00:55:20;;;;;;;;;83.75;66.50;;;;;;;;5076317;28;11743;-78
2022/02/08 00:57:46;;;;;;;;;92.00;79.33;;;;;;;;5075276;28;8847;-78
2022/02/08 01:00:11;;;;;;;;;89.33;76.67;;;;;;;;5075478;28;8844;-78
2022/02/08 01:02:36;;;;;;;;;89.00;74.25;;;;;;;;5076861;28;8808;-78
2022/02/08 01:05:05;;;;;;;;;85.75;70.75;;;;;;;;5075139;28;8827;-78
2022/02/08 01:07:30;;;;;;;;;80.00;64.00;;;;;;;;5076914;28;8781;-78
2022/02/08 01:09:59;;;;;;;;;84.50;67.50;;;;;;;;5076670;28;8946;-78
2022/02/08 01:12:26;;;;;;;;;91.25;78.75;;;;;;;;5076526;28;8776;-78
2022/02/08 01:14:53;;;;;;;;;90.25;77.50;;;;;;;;5076367;28;11584;-78
2022/02/08 01:17:20;;;;;;;;;86.40;73.80;;;;;;;;5076514;28;8824;-78
2022/02/08 01:19:51;;;;;;;;;89.25;78.00;;;;;;;;5075099;28;9723;-78
2022/02/08 01:22:17;;;;;;;;;91.00;79.25;;;;;;;;5076593;28;8870;-78
2022/02/08 01:24:46;;;;;;;;;94.00;85.75;;;;;;;;5076356;28;8808;-78
2022/02/08 01:27:12;;;;;;;;;79.25;64.25;;;;;;;;5076535;28;8825;-78
2022/02/08 01:29:53;;;;;;;;;93.75;85.00;;;;;;;;5076395;28;8804;-78
2022/02/08 01:40:25;;;;;;;;;87.80;70.60;;;;;;;;5075774;28;8843;-78
2022/02/08 01:43:29;;;;;;;;;99.20;90.20;;;;;;;;5076113;28;8839;-79
2022/02/08 01:48:16;;;;;;;;;87.75;74.50;;;;;;;;5076423;28;8785;-78
2022/02/08 01:50:42;;;;;;;;;90.20;78.00;;;;;;;;5075542;28;8819;-78
2022/02/08 01:53:07;;;;;;;;;83.00;66.40;;;;;;;;5076367;28;8784;-78
2022/02/08 01:55:33;;;;;;;;;88.00;71.75;;;;;;;;5076193;28;8780;-78
2022/02/08 01:58:00;;;;;;;;;79.80;63.80;;;;;;;;5075784;28;8812;-79
2022/02/08 02:00:25;;;;;;;;;85.75;71.75;;;;;;;;5076018;28;8792;-78
2022/02/08 02:02:50;;;;;;;;;81.67;67.00;;;;;;;;5076155;28;8796;-78
2022/02/08 02:05:16;;;;;;;;;94.33;85.33;;;;;;;;5075014;28;8834;-78
2022/02/08 02:07:47;;;;;;;;;83.60;68.20;;;;;;;;5075845;28;8772;-78
2022/02/08 02:10:13;;;;;;;;;88.00;72.25;;;;;;;;5075825;28;8812;-78
2022/02/08 02:12:48;;;;;;;;;80.75;66.50;;;;;;;;5075701;28;8804;-78
2022/02/08 02:15:13;;;;;;;;;80.25;66.00;;;;;;;;5075623;28;8801;-79
2022/02/08 02:17:38;;;;;;;;;91.40;79.00;;;;;;;;5075605;28;8879;-79
2022/02/08 02:20:04;;;;;;;;;88.00;74.00;;;;;;;;5075580;28;8905;-79
2022/02/08 02:22:29;;;;;;;;;80.00;64.00;;;;;;;;5075824;28;8816;-78
2022/02/08 02:24:55;;;;;;;;;89.50;79.50;;;;;;;;5075732;28;8843;-78
2022/02/08 02:27:20;;;;;;;;;84.67;69.67;;;;;;;;5075480;28;8837;-78
2022/02/08 02:29:45;;;;;;;;;82.33;68.33;;;;;;;;5075522;28;8828;-79
2022/02/08 02:32:13;;;;;;;;;77.00;63.25;;;;;;;;5071727;28;9575;-79
2022/02/08 02:34:44;;;;;;;;;90.50;81.00;;;;;;;;5065141;28;8785;-79
2022/02/08 02:37:10;;;;;;;;;88.60;75.80;;;;;;;;5075413;28;9103;-79
2022/02/08 02:39:35;;;;;;;;;86.50;74.75;;;;;;;;5075841;28;8907;-79
2022/02/08 02:42:01;;;;;;;;;80.00;66.00;;;;;;;;5073776;28;8843;-79
2022/02/08 02:44:26;;;;;;;;;76.00;61.50;;;;;;;;5075440;28;8813;-79
2022/02/08 02:46:52;;;;;;;;;81.75;67.00;;;;;;;;5075379;28;8834;-79
2022/02/08 02:49:17;;;;;;;;;78.25;63.50;;;;;;;;5075477;28;8788;-79
2022/02/08 02:51:43;;;;;;;;;81.33;65.67;;;;;;;;5075154;28;8796;-79
2022/02/08 02:54:15;;;;;;;;;81.75;66.50;;;;;;;;5075333;28;8907;-79
2022/02/08 02:56:41;;;;;;;;;70.00;57.80;;;;;;;;5073241;28;8830;-79
2022/02/08 02:59:06;;;;;;;;;89.25;78.50;;;;;;;;5075264;28;8812;-79
2022/02/08 03:02:37;;;;;;;;;87.75;73.75;;;;;;;;5074822;28;8820;-79
2022/02/08 03:04:36;;;;;;;;;81.20;66.00;;;;;;;;5070163;28;8827;-79
2022/02/08 03:20:30;;;;;;;;;77.25;62.50;;;;;;;;5090953;28;8751;-84
2022/02/08 03:22:55;;;;;;;;;78.75;65.25;;;;;;;;5082382;28;9529;-85
2022/02/08 03:25:21;;;;;;;;;83.00;67.50;;;;;;;;5073492;28;8840;-85
2022/02/08 03:27:46;;;;;;;;;74.75;61.50;;;;;;;;5074749;28;8808;-85
2022/02/08 03:30:12;;;;;;;;;79.67;64.00;;;;;;;;5073578;28;8852;-85
2022/02/08 03:32:37;;;;;;;;;87.33;73.67;;;;;;;;5068522;28;8829;-85
2022/02/08 03:35:03;;;;;;;;;80.67;65.67;;;;;;;;5067724;28;8891;-85
2022/02/08 03:37:31;;;;;;;;;76.50;60.75;;;;;;;;5074739;28;9500;-85
2022/02/08 03:40:07;;;;;;;;;91.40;81.20;;;;;;;;5074621;28;8803;-85
2022/02/08 03:42:56;;;;;;;;;81.75;67.50;;;;;;;;5074738;28;8763;-85
2022/02/08 03:45:21;;;;;;;;;76.80;62.80;;;;;;;;5072703;28;8836;-85
2022/02/08 03:47:47;;;;;;;;;87.00;74.50;;;;;;;;5074697;28;8804;-85
2022/02/08 03:50:12;;;;;;;;;75.00;62.00;;;;;;;;5074165;28;8800;-84
2022/02/08 03:52:38;;;;;;;;;76.00;59.67;;;;;;;;5060940;28;8878;-85
2022/02/08 03:55:03;;;;;;;;;74.75;61.25;;;;;;;;5074585;28;8805;-85
2022/02/08 03:57:29;;;;;;;;;78.75;65.00;;;;;;;;5074065;28;8824;-84
2022/02/08 03:59:54;;;;;;;;;80.00;66.00;;;;;;;;5074444;28;8800;-84
2022/02/08 04:04:59;;;;;;;;;63.60;53.80;;;;;;;;5074436;28;8905;-84
2022/02/08 04:07:35;;;;;;;;;73.50;60.50;;;;;;;;5074413;28;8870;-84
2022/02/08 04:10:04;;;;;;;;;75.40;60.60;;;;;;;;5073012;28;9698;-84
2022/02/08 04:39:13;;;;;;;;;78.60;64.80;;;;;;;;5077135;28;11508;-85
2022/02/08 04:41:50;;;;;;;;;79.50;63.50;;;;;;;;5077115;28;8808;-85
2022/02/08 04:44:38;;;;;;;;;73.80;60.20;;;;;;;;5077184;28;8797;-85
2022/02/08 04:49:29;;;;;;;;;71.00;58.67;;;;;;;;5077194;28;8808;-85
2022/02/08 04:51:59;;;;;;;;;59.75;51.25;;;;;;;;5075487;28;8834;-85
2022/02/08 04:54:35;;;;;;;;;74.25;61.00;;;;;;;;5077167;28;8834;-85
2022/02/08 05:02:39;;;;;;;;;52.60;45.00;;;;;;;;5077001;28;8804;-85
2022/02/08 05:47:44;;;;;;;;;59.75;50.00;;;;;;;;5076461;28;8846;-84
2022/02/08 05:50:23;;;;;;;;;58.60;47.60;;;;;;;;5076000;28;8781;-84
2022/02/08 05:53:02;;;;;;;;;66.25;55.25;;;;;;;;5062758;28;8824;-84
2022/02/08 05:55:27;;;;;;;;;70.25;57.75;;;;;;;;5075066;28;8869;-84
2022/02/08 05:57:53;;;;;;;;;69.25;58.00;;;;;;;;5075833;28;8812;-86
2022/02/08 06:00:19;;;;;;;;;59.50;51.00;;;;;;;;5075988;28;8944;-85
2022/02/08 06:02:47;;;;;;;;;67.25;56.00;;;;;;;;5076119;28;8780;-83
2022/02/08 06:05:17;;;;;;;;;67.60;55.00;;;;;;;;5075237;28;8788;-84
2022/02/08 06:07:43;;;;;;;;;70.50;57.75;;;;;;;;5062180;28;8997;-84
2022/02/08 06:10:08;;;;;;;;;65.00;54.25;;;;;;;;5073755;28;9005;-85
2022/02/08 06:12:55;;;;;;;;;77.33;64.33;;;;;;;;5063134;28;8814;-85
2022/02/08 06:15:23;;;;;;;;;65.80;55.00;;;;;;;;5074672;28;8821;-84
2022/02/08 06:17:49;;;;;;;;;75.20;61.00;;;;;;;;5066705;28;8771;-84
2022/02/08 06:20:15;;;;;;;;;67.20;55.00;;;;;;;;5075134;28;8891;-84
2022/02/08 06:22:41;;;;;;;;;70.25;58.00;;;;;;;;5075491;28;8784;-84
2022/02/08 06:25:09;;;;;;;;;77.75;62.25;;;;;;;;5075719;28;8772;-84
2022/02/08 06:27:34;;;;;;;;;76.00;62.40;;;;;;;;5075060;28;8788;-84
2022/02/08 06:30:00;;;;;;;;;81.00;65.67;;;;;;;;5068886;28;8846;-81
2022/02/08 06:32:26;;;;;;;;;76.00;62.67;;;;;;;;5069390;28;8804;-82
2022/02/08 06:34:54;;;;;;;;;77.20;63.60;;;;;;;;5080047;28;8824;-80
2022/02/08 06:37:21;;;;;;;;;75.00;61.60;;;;;;;;5075402;28;8913;-81
2022/02/08 06:39:46;;;;;;;;;76.60;61.60;;;;;;;;5075226;28;11585;-80
2022/02/08 06:42:12;;;;;;;;;79.25;64.50;;;;;;;;5073848;28;8928;-79
2022/02/08 06:44:37;;;;;;;;;86.00;74.33;;;;;;;;5070642;28;8828;-82
2022/02/08 06:47:03;;;;;;;;;85.50;73.75;;;;;;;;5066486;28;8825;-80
2022/02/08 06:49:28;;;;;;;;;85.50;72.75;;;;;;;;5075290;28;8796;-78
2022/02/08 06:51:53;;;;;;;;;88.25;78.00;;;;;;;;5072508;28;8886;-78
2022/02/08 06:54:19;;;;;;;;;83.75;70.50;;;;;;;;5074913;28;8839;-78
2022/02/08 06:56:45;;;;;;;;;88.33;76.67;;;;;;;;5073972;28;8808;-77
2022/02/08 06:59:14;;;;;;;;;78.00;63.40;;;;;;;;5075156;28;8808;-78
2022/02/08 07:01:39;;;;;;;;;88.50;78.25;;;;;;;;5073356;28;8812;-81
2022/02/08 07:04:07;;;;;;;;;87.67;74.33;;;;;;;;5073665;28;8817;-79
2022/02/08 07:06:33;;;;;;;;;83.25;70.75;;;;;;;;5076279;28;12006;-80
2022/02/08 07:08:58;;;;;;;;;78.75;64.25;;;;;;;;5066819;28;8832;-76
2022/02/08 07:11:25;;;;;;;;;90.00;80.50;;;;;;;;5074433;28;8902;-77
2022/02/08 07:13:52;;;;;;;;;87.00;74.80;;;;;;;;5074647;28;8869;-82
2022/02/08 07:16:17;;;;;;;;;91.50;84.50;;;;;;;;5072849;28;8855;-79
2022/02/08 07:18:43;;;;;;;;;92.50;85.25;;;;;;;;5073051;28;8820;-79
2022/02/08 07:21:09;;;;;;;;;91.25;81.50;;;;;;;;5074334;28;8805;-79
2022/02/08 07:23:34;;;;;;;;;94.00;89.60;;;;;;;;5074260;28;8796;-79
2022/02/08 07:26:00;;;;;;;;;89.00;77.00;;;;;;;;5074518;28;8837;-79
2022/02/08 07:28:25;;;;;;;;;88.50;76.25;;;;;;;;5074262;28;8830;-78
2022/02/08 07:30:59;;;;;;;;;94.20;89.60;;;;;;;;5074571;28;8836;-79
2022/02/08 07:33:25;;;;;;;;;84.75;72.25;;;;;;;;5074166;28;8816;-78
2022/02/08 07:35:58;;;;;;;;;87.33;74.33;;;;;;;;5072859;28;8821;-78
2022/02/08 07:38:34;;;;;;;;;82.00;68.40;;;;;;;;5062141;28;8796;-78
2022/02/08 07:43:25;;;;;;;;;92.00;84.00;;;;;;;;5074394;28;9556;-78
2022/02/08 07:45:50;;;;;;;;;94.25;89.50;;;;;;;;5074083;28;8832;-78
2022/02/08 07:48:15;;;;;;;;;90.00;81.25;;;;;;;;5074445;28;8820;-82
2022/02/08 07:50:42;;;;;;;;;92.40;85.00;;;;;;;;5073919;28;8792;-82
2022/02/08 07:53:13;;;;;;;;;96.20;93.40;;;;;;;;5073718;28;8788;-82
2022/02/08 07:55:39;;;;;;;;;97.60;94.60;;;;;;;;5074016;28;8853;-82
2022/02/08 07:58:04;;;;;;;;;96.00;91.00;;;;;;;;5073857;28;8808;-82
2022/02/08 08:00:30;;;;;;;;;107.20;106.40;;;;;;;;5072994;28;8922;-82
2022/02/08 08:02:55;;;;;;;;;93.80;87.60;;;;;;;;5073983;28;8838;-76
2022/02/08 08:05:20;;;;;;;;;104.80;101.80;;;;;;;;5076723;28;8816;-82
2022/02/08 08:07:46;;;;;;;;;110.40;109.00;;;;;;;;5076704;28;8813;-82
2022/02/08 08:10:17;;;;;;;;;96.60;93.60;;;;;;;;5077614;28;8784;-82
2022/02/08 08:12:46;;;;;;;;;115.50;112.83;;;;;;;;5075945;28;8815;-82
2022/02/08 08:15:25;;;;;;;;;99.20;95.60;;;;;;;;5074222;28;8840;-83
2022/02/08 08:18:00;;;;;;;;;116.33;115.00;;;;;;;;5077216;28;8804;-82
2022/02/08 08:20:26;;;;;;;;;94.50;90.50;;;;;;;;5077171;28;8807;-82
2022/02/08 08:22:51;;;;;;;;;109.75;107.75;;;;;;;;5079351;28;8800;-82
2022/02/08 08:25:17;;;;;;;;;109.40;108.60;;;;;;;;5075661;28;8819;-82
2022/02/08 08:27:42;;;;;;;;;135.20;135.20;;;;;;;;5077025;28;8816;-83
2022/02/08 08:30:09;;;;;;;;;172.60;170.20;;;;;;;;5076952;28;8962;-82
2022/02/08 08:32:35;;;;;;;;;185.80;184.80;;;;;;;;5076887;28;8777;-82
2022/02/08 08:35:01;;;;;;;;;211.33;210.83;;;;;;;;5076763;28;8721;-82
2022/02/08 08:37:26;;;;;;;;;199.60;196.00;;;;;;;;5077089;28;8949;-82
2022/02/08 08:39:53;;;;;;;;;152.00;151.50;;;;;;;;5076904;28;8820;-82
2022/02/08 08:50:10;;;;;;;;;138.20;137.80;;;;;;;;5065179;28;8765;-82
2022/02/08 08:52:41;;;;;;;;;116.80;115.40;;;;;;;;5075168;28;11555;-81
2022/02/08 08:55:07;;;;;;;;;118.60;118.40;;;;;;;;5077092;28;8773;-82
2022/02/08 08:57:32;;;;;;;;;118.60;117.40;;;;;;;;5074655;28;8835;-81
2022/02/08 08:59:58;;;;;;;;;110.50;109.50;;;;;;;;5076663;28;8842;-81
2022/02/08 09:02:24;;;;;;;;;118.80;118.20;;;;;;;;5072864;28;9548;-81
2022/02/08 09:04:51;;;;;;;;;107.40;105.40;;;;;;;;5074304;28;8792;-81
2022/02/08 09:07:17;;;;;;;;;168.00;167.80;;;;;;;;5080513;28;8831;-81
2022/02/08 09:09:45;;;;;;;;;117.00;115.25;;;;;;;;5076780;28;8812;-81
2022/02/08 09:15:31;;;;;;;;;104.67;104.67;;;;;;;;5075958;28;9657;-81
2022/02/08 09:30:39;;;;;;;;;155.50;151.50;;;;;;;;5075732;28;8807;-81
2022/02/08 09:33:04;;;;;;;;;138.33;138.33;;;;;;;;5076253;28;9774;-81
2022/02/08 09:35:30;;;;;;;;;92.75;88.75;;;;;;;;5075579;28;8844;-81
2022/02/08 09:37:58;;;;;;;;;90.50;83.50;;;;;;;;5076229;28;8914;-81
2022/02/08 09:40:25;;;;;;;;;90.00;82.40;;;;;;;;5070455;28;8741;-80
2022/02/08 09:42:52;;;;;;;;;116.20;113.80;;;;;;;;5082780;28;8840;-80
2022/02/08 09:45:20;;;;;;;;;110.00;108.40;;;;;;;;5075886;28;11593;-80
2022/02/08 09:48:13;;;;;;;;;112.83;112.83;;;;;;;;5079345;28;8793;-80
2022/02/08 09:50:40;;;;;;;;;116.00;115.33;;;;;;;;5073320;28;8753;-81
2022/02/08 09:53:11;;;;;;;;;127.00;124.83;;;;;;;;5072523;28;8784;-80
2022/02/08 09:55:39;;;;;;;;;93.50;89.33;;;;;;;;5064020;28;8800;-80
2022/02/08 09:58:05;;;;;;;;;100.25;98.50;;;;;;;;5080543;28;8810;-81
2022/02/08 10:00:32;;;;;;;;;130.20;130.00;;;;;;;;5075611;28;8813;-80
2022/02/08 10:03:17;;;;;;;;;155.17;155.17;;;;;;;;5069463;28;8962;-81
2022/02/08 10:05:47;;;;;;;;;144.40;144.40;;;;;;;;5073463;28;8812;-81
2022/02/08 10:08:13;;;;;;;;;111.80;109.40;;;;;;;;5073680;28;12508;-81
2022/02/08 10:10:38;;;;;;;;;88.00;78.40;;;;;;;;5079950;28;8809;-81
2022/02/08 10:13:18;;;;;;;;;86.50;77.50;;;;;;;;5076277;28;8792;-81
2022/02/08 10:23:59;;;;;;;;;85.00;74.00;;;;;;;;5082185;28;8866;-81
2022/02/08 10:26:33;;;;;;;;;79.60;66.60;;;;;;;;5060714;28;8781;-81
2022/02/08 10:29:06;;;;;;;;;87.75;80.75;;;;;;;;5073654;28;9354;-81
2022/02/08 10:32:04;;;;;;;;;89.50;83.25;;;;;;;;5061745;28;8792;-81
2022/02/08 10:40:05;;;;;;;;;76.00;63.20;;;;;;;;5080448;28;11614;-81
2022/02/08 10:42:31;;;;;;;;;83.25;70.00;;;;;;;;5070314;28;8813;-81
2022/02/08 10:44:57;;;;;;;;;81.20;70.80;;;;;;;;5073032;28;11602;-81
2022/02/08 10:47:35;;;;;;;;;78.40;65.20;;;;;;;;5069999;28;9626;-81
2022/02/08 10:50:26;;;;;;;;;70.80;58.40;;;;;;;;5059640;28;8807;-86
2022/02/08 10:52:52;;;;;;;;;82.60;71.80;;;;;;;;5071687;28;8967;-82
2022/02/08 10:55:28;;;;;;;;;65.40;54.00;;;;;;;;5065621;28;8835;-82
2022/02/08 10:58:19;;;;;;;;;71.80;58.60;;;;;;;;5068637;28;8812;-83
2022/02/08 11:00:59;;;;;;;;;65.75;55.50;;;;;;;;5072450;28;8803;-83
2022/02/08 11:03:31;;;;;;;;;79.40;66.40;;;;;;;;5069455;28;8804;-84
2022/02/08 11:06:16;;;;;;;;;66.20;54.20;;;;;;;;5066443;28;8819;-84
2022/02/08 11:09:22;;;;;;;;;82.50;69.75;;;;;;;;5082131;28;8882;-84
2022/02/08 11:16:50;;;;;;;;;77.50;64.25;;;;;;;;5074081;28;8792;-83
2022/02/08 11:19:27;;;;;;;;;74.25;60.75;;;;;;;;5060868;28;8852;-83
2022/02/08 11:22:01;;;;;;;;;76.80;63.80;;;;;;;;5074284;28;11478;-83
2022/02/08 11:24:38;;;;;;;;;81.20;71.00;;;;;;;;5074556;28;8808;-83
2022/02/08 11:27:14;;;;;;;;;78.00;66.00;;;;;;;;5072821;28;8866;-83
2022/02/08 11:29:58;;;;;;;;;77.75;65.75;;;;;;;;5073062;28;11590;-83
2022/02/08 11:32:37;;;;;;;;;66.75;55.00;;;;;;;;5070312;28;9722;-83
2022/02/08 11:54:19;;;;;;;;;74.20;60.20;;;;;;;;5077811;28;8796;-83
2022/02/08 12:00:12;;;;;;;;;72.00;59.00;;;;;;;;5077534;28;9792;-83
2022/02/08 12:07:36;;;;;;;;;72.50;59.75;;;;;;;;5077458;28;9659;-83
2022/02/08 12:11:06;;;;;;;;;81.60;72.20;;;;;;;;5077455;28;8785;-83
2022/02/08 12:54:04;;;;;;;;;102.20;101.40;;;;;;;;5077032;28;8760;-82
2022/02/08 12:56:24;;;;;;;;;105.75;105.75;;;;;;;;5076108;28;8850;-83
2022/02/08 14:05:02;;;;;;;;;109.40;108.20;;;;;;;;5075526;28;8804;-82
2022/02/08 14:09:30;;;;;;;;;113.75;112.75;;;;;;;;5075555;28;8808;-83
2022/02/08 14:12:45;;;;;;;;;118.40;117.60;;;;;;;;5060879;28;8822;-82
2022/02/08 14:17:38;;;;;;;;;114.60;114.60;;;;;;;;5074936;28;8882;-82
2022/02/08 14:23:10;;;;;;;;;99.00;99.00;;;;;;;;5075014;28;8847;-82
2022/02/08 14:30:39;;;;;;;;;81.20;72.80;;;;;;;;5075119;28;8797;-82
2022/02/08 14:57:39;;;;;;;;;66.75;54.25;;;;;;;;5074372;28;8804;-82
2022/02/08 15:05:46;;;;;;;;;75.75;64.00;;;;;;;;5074639;28;8757;-82
2022/02/08 15:08:44;;;;;;;;;75.80;64.20;;;;;;;;5074554;28;9640;-82
2022/02/08 15:11:09;;;;;;;;;68.25;56.25;;;;;;;;5067487;28;8827;-82
2022/02/08 15:13:35;;;;;;;;;74.75;61.75;;;;;;;;5066443;28;8872;-82
2022/02/08 15:16:47;;;;;;;;;75.00;63.80;;;;;;;;5073387;28;9662;-84
2022/02/08 15:19:32;;;;;;;;;79.80;70.20;;;;;;;;5071951;28;8824;-83
2022/02/08 15:22:00;;;;;;;;;62.00;51.75;;;;;;;;5063489;28;8792;-75
2022/02/08 15:24:25;;;;;;;;;68.80;56.40;;;;;;;;5072448;28;8827;-79
2022/02/08 15:26:53;;;;;;;;;63.25;52.75;;;;;;;;5072032;28;8816;-79
2022/02/08 15:29:18;;;;;;;;;72.67;60.33;;;;;;;;5074104;28;8796;-79
2022/02/08 15:31:44;;;;;;;;;70.25;57.75;;;;;;;;5072494;28;11595;-79
2022/02/08 15:34:11;;;;;;;;;78.25;67.25;;;;;;;;5072778;28;8816;-80
2022/02/08 15:36:37;;;;;;;;;68.75;56.00;;;;;;;;5074102;28;8776;-79
2022/02/08 15:39:07;;;;;;;;;82.00;73.67;;;;;;;;5074241;28;8840;-79
2022/02/08 15:41:37;;;;;;;;;74.00;61.00;;;;;;;;5072381;28;11671;-79
2022/02/08 15:44:03;;;;;;;;;73.20;59.60;;;;;;;;5072567;28;8851;-80
2022/02/08 15:46:30;;;;;;;;;73.60;59.60;;;;;;;;5074066;28;8882;-80
2022/02/08 15:48:56;;;;;;;;;71.00;59.00;;;;;;;;5074293;28;8793;-79
2022/02/08 15:51:30;;;;;;;;;74.00;60.67;;;;;;;;5074094;28;8840;-79
2022/02/08 16:09:39;;;;;;;;;79.50;69.00;;;;;;;;5074079;28;8858;-79
2022/02/08 16:19:58;;;;;;;;;80.50;69.50;;;;;;;;5073651;28;8943;-80
2022/02/08 16:22:44;;;;;;;;;77.25;66.00;;;;;;;;5059545;28;8792;-79
2022/02/08 16:25:31;;;;;;;;;80.80;70.60;;;;;;;;5069697;28;8800;-75
2022/02/08 16:49:50;;;;;;;;;77.00;65.75;;;;;;;;5076071;28;8820;-80
2022/02/08 16:54:49;;;;;;;;;79.75;66.50;;;;;;;;5076415;28;8804;-79
2022/02/08 16:57:31;;;;;;;;;82.60;72.20;;;;;;;;5075702;28;8777;-80
2022/02/08 16:59:58;;;;;;;;;86.80;81.00;;;;;;;;5074495;28;8816;-80
2022/02/08 17:02:26;;;;;;;;;81.25;71.75;;;;;;;;5075823;28;9735;-80
2022/02/08 17:04:52;;;;;;;;;78.20;67.20;;;;;;;;5075995;28;8818;-80
2022/02/08 17:07:17;;;;;;;;;75.67;61.00;;;;;;;;5075542;28;8914;-80
2022/02/08 17:09:56;;;;;;;;;83.75;76.50;;;;;;;;5075860;28;8994;-77
2022/02/08 17:12:28;;;;;;;;;87.80;82.60;;;;;;;;5059472;28;8853;-77
2022/02/08 17:34:26;;;;;;;;;84.40;75.40;;;;;;;;5066989;28;8783;-80
2022/02/08 17:49:35;;;;;;;;;79.25;66.50;;;;;;;;5075089;28;8846;-85
2022/02/08 17:52:01;;;;;;;;;58.50;48.75;;;;;;;;5075549;28;8896;-85
2022/02/08 17:54:26;;;;;;;;;77.33;63.33;;;;;;;;5075334;28;8796;-84
2022/02/08 17:56:54;;;;;;;;;84.00;74.75;;;;;;;;5070523;28;8906;-85
2022/02/08 17:59:23;;;;;;;;;77.33;64.00;;;;;;;;5075693;28;8820;-85
2022/02/08 18:01:50;;;;;;;;;74.25;60.25;;;;;;;;5075732;28;11671;-85
2022/02/08 18:04:15;;;;;;;;;77.00;65.40;;;;;;;;5074077;28;8907;-86
2022/02/08 18:06:41;;;;;;;;;75.33;61.00;;;;;;;;5075634;28;8893;-86
2022/02/08 18:09:06;;;;;;;;;71.33;58.67;;;;;;;;5061911;28;9579;-84
2022/02/08 18:11:37;;;;;;;;;72.50;60.25;;;;;;;;5075399;28;8808;-85
2022/02/08 18:14:04;;;;;;;;;74.25;61.00;;;;;;;;5062670;28;8793;-84
2022/02/08 18:16:33;;;;;;;;;72.60;59.20;;;;;;;;5074876;28;8793;-84
2022/02/08 18:19:03;;;;;;;;;57.60;48.00;;;;;;;;5073163;28;8907;-83
2022/02/08 18:21:34;;;;;;;;;74.50;60.50;;;;;;;;5069217;28;8820;-84
2022/02/08 18:24:24;;;;;;;;;77.20;64.80;;;;;;;;5077868;28;8769;-83
2022/02/08 19:07:32;;;;;;;;;70.00;56.75;;;;;;;;5072905;28;8785;-79
2022/02/08 19:13:06;;;;;;;;;72.33;58.00;;;;;;;;5067838;28;9651;-79
2022/02/08 19:20:43;;;;;;;;;74.75;60.50;;;;;;;;5063610;28;8791;-79
2022/02/08 19:23:08;;;;;;;;;73.80;60.80;;;;;;;;5065607;28;11522;-79
2022/02/08 19:25:33;;;;;;;;;75.67;62.67;;;;;;;;5067422;28;8906;-79
2022/02/08 19:28:01;;;;;;;;;67.50;56.25;;;;;;;;5071957;28;8813;-80
2022/02/08 19:30:27;;;;;;;;;74.50;61.25;;;;;;;;5072437;28;8816;-77
2022/02/08 19:32:53;;;;;;;;;67.33;56.00;;;;;;;;5063900;28;11295;-78
2022/02/08 19:35:20;;;;;;;;;71.25;59.00;;;;;;;;5073375;28;8829;-78
2022/02/08 19:37:46;;;;;;;;;66.00;55.50;;;;;;;;5069459;28;8842;-78
2022/02/08 19:40:12;;;;;;;;;61.50;51.50;;;;;;;;5067449;28;9726;-78
2022/02/08 19:42:38;;;;;;;;;73.20;60.20;;;;;;;;5071445;28;8804;-79
2022/02/08 19:45:13;;;;;;;;;66.25;54.00;;;;;;;;5071842;28;8844;-78
2022/02/08 19:47:41;;;;;;;;;77.80;65.00;;;;;;;;5073440;28;8889;-79
2022/02/08 19:50:07;;;;;;;;;72.25;59.25;;;;;;;;5073137;28;8800;-79
2022/02/08 19:52:33;;;;;;;;;70.60;57.80;;;;;;;;5068403;28;9639;-78
2022/02/08 19:55:20;;;;;;;;;76.50;63.00;;;;;;;;5058828;28;9720;-79
2022/02/08 19:57:48;;;;;;;;;66.60;55.80;;;;;;;;5072230;28;8852;-80
2022/02/08 20:00:18;;;;;;;;;74.00;61.20;;;;;;;;5070366;28;8835;-80
2022/02/08 20:02:49;;;;;;;;;71.40;58.40;;;;;;;;5076118;28;8796;-81
2022/02/08 20:05:16;;;;;;;;;72.40;59.00;;;;;;;;5073748;28;8801;-81
2022/02/08 20:07:42;;;;;;;;;69.75;58.00;;;;;;;;5066526;28;8800;-81
2022/02/08 20:10:07;;;;;;;;;79.25;64.75;;;;;;;;5074799;28;8836;-80
2022/02/08 20:12:33;;;;;;;;;64.50;54.25;;;;;;;;5075678;28;8834;-81
2022/02/08 20:14:59;;;;;;;;;65.75;55.50;;;;;;;;5076567;28;11721;-81
2022/02/08 20:17:25;;;;;;;;;64.50;53.50;;;;;;;;5076770;28;9223;-78
2022/02/08 20:19:52;;;;;;;;;73.00;60.00;;;;;;;;5067463;28;8814;-78
2022/02/08 20:22:19;;;;;;;;;75.00;61.50;;;;;;;;5064045;28;9636;-78
2022/02/08 20:24:47;;;;;;;;;73.60;60.60;;;;;;;;5076096;28;9913;-78
2022/02/08 20:29:57;;;;;;;;;68.60;55.80;;;;;;;;5075071;28;8792;-78
2022/02/08 20:32:23;;;;;;;;;75.60;62.20;;;;;;;;5052367;28;8755;-78
2022/02/08 20:34:48;;;;;;;;;81.50;69.50;;;;;;;;5074556;28;8808;-78
2022/02/08 20:37:14;;;;;;;;;86.20;77.20;;;;;;;;5067943;28;8813;-78
2022/02/08 20:39:39;;;;;;;;;78.00;63.25;;;;;;;;5071981;28;9752;-77
2022/02/08 20:42:06;;;;;;;;;87.20;78.40;;;;;;;;5067396;28;8887;-77
2022/02/08 20:44:34;;;;;;;;;104.50;103.50;;;;;;;;5072106;28;9753;-77
2022/02/08 20:47:06;;;;;;;;;95.00;92.50;;;;;;;;5068271;28;9641;-77
2022/02/08 20:49:32;;;;;;;;;100.20;98.60;;;;;;;;5061517;28;8800;-77
2022/02/08 20:51:57;;;;;;;;;108.25;106.25;;;;;;;;5066725;28;8839;-77
2022/02/08 20:54:26;;;;;;;;;144.25;143.25;;;;;;;;5075729;28;9548;-77
2022/02/08 20:57:02;;;;;;;;;151.29;150.57;;;;;;;;5075941;28;8788;-77
2022/02/08 20:59:28;;;;;;;;;110.71;107.14;;;;;;;;5074446;28;8832;-77
2022/02/08 21:01:54;;;;;;;;;102.50;97.67;;;;;;;;5076312;28;8935;-77
2022/02/08 21:06:46;;;;;;;;;127.20;125.60;;;;;;;;5076113;28;8797;-77
2022/02/08 21:09:14;;;;;;;;;145.25;143.75;;;;;;;;5066287;28;8826;-77
2022/02/08 21:11:43;;;;;;;;;164.50;162.33;;;;;;;;5074420;28;8838;-81
2022/02/08 21:14:11;;;;;;;;;161.17;160.50;;;;;;;;5075955;28;8836;-81
2022/02/08 21:16:42;;;;;;;;;223.14;220.71;;;;;;;;5073975;28;8773;-81
2022/02/08 21:19:16;;;;;;;;;269.17;264.50;;;;;;;;5075534;28;8917;-82
2022/02/08 21:21:41;;;;;;;;;165.86;164.14;;;;;;;;5075533;28;8788;-82
2022/02/08 21:24:13;;;;;;;;;147.50;145.33;;;;;;;;5075992;28;8832;-82
2022/02/08 21:26:47;;;;;;;;;139.67;134.83;;;;;;;;5075695;28;8843;-82
2022/02/08 21:32:04;;;;;;;;;118.00;114.50;;;;;;;;5075517;28;8839;-81
2022/02/08 21:47:05;;;;;;;;;116.60;111.60;;;;;;;;5080209;28;8926;-80
2022/02/08 21:48:39;;;;;;;;;121.60;117.80;;;;;;;;5074343;28;8808;-80
2022/02/08 21:51:21;;;;;;;;;121.00;119.00;;;;;;;;5075841;28;8769;-82
2022/02/08 21:53:47;;;;;;;;;125.20;125.20;;;;;;;;5070147;28;9412;-82
2022/02/08 21:56:15;;;;;;;;;134.60;129.40;;;;;;;;5070759;28;8901;-81
2022/02/08 21:58:41;;;;;;;;;119.00;115.60;;;;;;;;5059619;28;8823;-81
2022/02/08 22:01:06;;;;;;;;;121.20;119.60;;;;;;;;5070802;28;11417;-81
2022/02/08 22:03:32;;;;;;;;;105.60;103.00;;;;;;;;5065262;28;8869;-82
2022/02/08 22:06:00;;;;;;;;;114.20;112.80;;;;;;;;5075486;28;8842;-82
2022/02/08 22:08:34;;;;;;;;;105.00;101.50;;;;;;;;5071387;28;8800;-80
2022/02/08 22:18:55;;;;;;;;;113.80;111.20;;;;;;;;5059044;28;8933;-81
2022/02/08 22:21:26;;;;;;;;;103.60;99.60;;;;;;;;5075572;28;8788;-81
2022/02/08 22:23:57;;;;;;;;;99.33;97.67;;;;;;;;5072942;28;8868;-81
2022/02/08 22:31:45;;;;;;;;;105.80;103.20;;;;;;;;5074995;28;8792;-81
2022/02/08 22:34:22;;;;;;;;;98.00;92.17;;;;;;;;5074961;28;10806;-81
2022/02/08 22:37:02;;;;;;;;;117.67;111.33;;;;;;;;5074874;28;8807;-81
2022/02/08 22:39:34;;;;;;;;;99.33;96.00;;;;;;;;5075028;28;8808;-81
2022/02/08 22:42:07;;;;;;;;;112.40;110.80;;;;;;;;5074664;28;8796;-81
2022/02/08 22:44:54;;;;;;;;;98.60;92.20;;;;;;;;5073161;28;8815;-81
2022/02/08 22:47:19;;;;;;;;;101.20;97.60;;;;;;;;5075208;28;8760;-82